createdAt,value
2022-08-02T00:04:35.896Z,35.27
2022-08-02T00:10:59.882Z,35.32
2022-08-02T00:17:32.393Z,35.24
2022-08-02T00:24:28.434Z,35.2
2022-08-02T00:31:12.929Z,34.85
2022-08-02T00:37:34.156Z,34.8
2022-08-02T00:44:13.112Z,34.87
2022-08-02T00:50:46.133Z,34.83
2022-08-02T00:57:11.975Z,34.88
2022-08-02T01:03:40.791Z,34.97
2022-08-02T01:10:05.723Z,34.98
2022-08-02T01:16:41.821Z,35.1
2022-08-02T01:23:52.074Z,35.18
2022-08-02T01:30:48.496Z,35.18
2022-08-02T01:37:52.080Z,35.14
2022-08-02T01:44:48.027Z,35.16
2022-08-02T01:51:37.102Z,35.24
2022-08-02T01:58:23.661Z,35.22
2022-08-02T02:05:06.184Z,35.17
2022-08-02T02:12:03.237Z,35.2
2022-08-02T02:18:45.089Z,35.14
2022-08-02T02:25:26.877Z,35.3
2022-08-02T02:32:27.812Z,35.27
2022-08-02T02:39:17.844Z,35.31
2022-08-02T02:45:54.197Z,35.2
2022-08-02T02:52:23.237Z,35.26
2022-08-02T02:58:55.856Z,35.22
2022-08-02T03:05:30.211Z,35.28
2022-08-02T03:11:54.797Z,35.2
2022-08-02T03:18:39.911Z,35.21
2022-08-02T03:25:04.109Z,35.21
2022-08-02T03:31:34.928Z,35.25
2022-08-02T03:38:12.377Z,35.08
2022-08-02T03:44:56.780Z,34.92
2022-08-02T03:51:40.720Z,34.71
2022-08-02T03:58:09.780Z,34.98
2022-08-02T04:04:50.239Z,34.96
2022-08-02T04:11:28.076Z,35.11
2022-08-02T04:18:04.877Z,35.69
2022-08-02T04:25:17.927Z,35.34
2022-08-02T04:31:54.249Z,35.82
2022-08-02T04:38:22.276Z,35.97
2022-08-02T04:45:00.025Z,36.04
2022-08-02T04:51:38.827Z,36.13
2022-08-02T04:58:38.649Z,36.2
2022-08-02T05:04:50.830Z,36.17
2022-08-02T05:11:20.447Z,36.25
2022-08-02T05:17:48.838Z,36.29
2022-08-02T05:24:20.123Z,36.21
2022-08-02T05:30:44.333Z,36.22
2022-08-02T05:37:10.779Z,36.23
2022-08-02T05:43:51.062Z,36.28
2022-08-02T05:50:14.612Z,36.28
2022-08-02T05:57:15.274Z,36.23
2022-08-02T06:04:16.512Z,36.3
2022-08-02T06:11:09.842Z,36.23
2022-08-02T06:17:50.996Z,36.27
2022-08-02T06:24:25.211Z,36.16
2022-08-02T06:30:52.924Z,36.04
2022-08-02T06:37:31.802Z,35.86
2022-08-02T06:44:49.861Z,35.42
2022-08-02T06:51:18.321Z,35.57
2022-08-02T06:57:42.341Z,35.57
2022-08-02T07:04:07.979Z,35.4
2022-08-02T07:10:35.635Z,35.47
2022-08-02T07:17:03.223Z,35.44
2022-08-02T07:23:26.337Z,35.4
2022-08-02T07:29:54.333Z,35.29
2022-08-02T07:36:23.220Z,35.36
2022-08-02T07:42:46.341Z,35.34
2022-08-02T07:49:11.109Z,35.41
2022-08-02T07:55:41.171Z,35.32
2022-08-02T08:02:09.314Z,35.33
2022-08-02T08:08:42.364Z,35.23
2022-08-02T08:15:06.060Z,35.32
2022-08-02T08:21:32.018Z,35.29
2022-08-02T08:27:59.298Z,35.25
2022-08-02T08:34:24.845Z,35.22
2022-08-02T08:40:49.936Z,35.21
2022-08-02T08:47:13.951Z,35.24
2022-08-02T08:54:18.992Z,35.17
2022-08-02T09:00:58.019Z,35.19
2022-08-02T09:07:46.886Z,35.16
2022-08-02T09:14:34.922Z,35.13
2022-08-02T09:21:26.107Z,35.15
2022-08-02T09:28:39.732Z,35.25
2022-08-02T09:36:05.734Z,35.14
2022-08-02T09:42:31.499Z,35.15
2022-08-02T09:49:04.962Z,35.12
2022-08-02T09:55:48.029Z,35.29
2022-08-02T10:02:34.483Z,35.31
2022-08-02T10:09:05.320Z,35.23
2022-08-02T10:15:31.301Z,35.19
2022-08-02T10:22:05.224Z,35.27
2022-08-02T10:28:52.578Z,35.26
2022-08-02T10:35:43.620Z,35.15
2022-08-02T10:42:23.406Z,35.13
2022-08-02T10:49:42.653Z,35.1
2022-08-02T10:56:42.117Z,35.05
2022-08-02T11:03:40.411Z,34.94
2022-08-02T11:10:43.416Z,34.91
2022-08-02T11:17:23.062Z,34.84
2022-08-02T11:24:10.501Z,34.84
2022-08-02T11:31:03.472Z,34.88
2022-08-02T11:37:37.494Z,34.85
2022-08-02T11:44:15.504Z,34.81
2022-08-02T11:50:56.599Z,34.75
2022-08-02T11:58:01.585Z,34.74
2022-08-02T12:04:40.944Z,34.78
2022-08-02T12:11:38.755Z,34.89
2022-08-02T12:18:12.641Z,34.85
2022-08-02T12:24:38.494Z,35.03
2022-08-02T12:31:55.742Z,35.02
2022-08-02T12:38:32.899Z,34.93
2022-08-02T12:45:24.260Z,34.95
2022-08-02T12:52:07.351Z,35
2022-08-02T12:59:14.112Z,34.94
2022-08-02T13:06:12.149Z,34.96
2022-08-02T13:12:52.728Z,34.94
2022-08-02T13:19:31.644Z,34.9
2022-08-02T13:26:07.073Z,34.9
2022-08-02T13:32:28.609Z,34.95
2022-08-02T13:38:58.053Z,34.94
2022-08-02T13:45:23.079Z,35.03
2022-08-02T13:51:47.348Z,35.03
2022-08-02T13:58:10.533Z,35.06
2022-08-02T14:04:46.533Z,35.18
2022-08-02T14:11:11.186Z,35.19
2022-08-02T14:17:42.534Z,35.24
2022-08-02T14:24:20.307Z,35.25
2022-08-02T14:30:47.114Z,35.23
2022-08-02T14:37:15.660Z,35.32
2022-08-02T14:43:41.363Z,35.4
2022-08-02T14:50:04.764Z,35.35
2022-08-02T14:56:32.391Z,35.37
2022-08-02T15:02:56.098Z,35.34
2022-08-02T15:09:19.175Z,35.39
2022-08-02T15:15:47.657Z,35.43
2022-08-02T15:22:19.463Z,35.37
2022-08-02T15:28:43.311Z,35.31
2022-08-02T15:35:05.672Z,35.15
2022-08-02T15:41:28.262Z,35.15
2022-08-02T15:47:51.457Z,35.25
2022-08-02T15:54:16.663Z,35.14
2022-08-02T16:00:49.392Z,35.09
2022-08-02T16:07:13.485Z,34.91
2022-08-02T16:13:58.841Z,34.87
2022-08-02T16:20:25.256Z,34.83
2022-08-02T16:26:46.916Z,34.88
2022-08-02T16:33:11.502Z,34.76
2022-08-02T16:39:54.071Z,34.88
2022-08-02T16:46:22.055Z,34.81
2022-08-02T16:52:59.195Z,34.79
2022-08-02T16:59:42.096Z,34.81
2022-08-02T17:06:31.669Z,34.75
2022-08-02T17:13:12.326Z,34.73
2022-08-02T17:19:39.247Z,34.71
2022-08-02T17:26:05.705Z,34.69
2022-08-02T17:32:46.096Z,34.88
2022-08-02T17:39:09.218Z,35
2022-08-02T17:45:59.520Z,34.99
2022-08-02T17:52:49.665Z,34.98
2022-08-02T17:59:21.166Z,35.49
2022-08-02T18:06:00.629Z,35.64
2022-08-02T18:12:34.659Z,35.87
2022-08-02T18:19:04.832Z,35.96
2022-08-02T18:25:55.787Z,36.12
2022-08-02T18:33:56.243Z,36.11
2022-08-02T18:39:24.264Z,35.87
2022-08-02T18:46:15.055Z,35.68
2022-08-02T18:52:47.924Z,35.71
2022-08-02T18:59:15.426Z,35.6
2022-08-02T19:05:51.920Z,35.47
2022-08-02T19:12:28.069Z,35.55
2022-08-02T19:18:54.690Z,35.61
2022-08-02T19:25:28.378Z,35.61
2022-08-02T19:32:39.438Z,35.52
2022-08-02T19:38:51.197Z,35.55
2022-08-02T19:45:18.379Z,35.57
2022-08-02T19:51:58.334Z,35.6
2022-08-02T19:58:27.669Z,35.62
2022-08-02T20:04:56.045Z,35.58
2022-08-02T20:11:18.321Z,35.62
2022-08-02T20:17:49.120Z,35.59
2022-08-02T20:24:10.754Z,35.5
2022-08-02T20:30:49.338Z,35.63
2022-08-02T20:37:56.476Z,35.56
2022-08-02T20:44:15.257Z,35.56
2022-08-02T20:50:42.012Z,35.63
2022-08-02T20:57:17.994Z,35.63
2022-08-02T21:03:53.681Z,35.58
2022-08-02T21:10:34.751Z,35.52
2022-08-02T21:17:04.835Z,35.4
2022-08-02T21:23:48.724Z,35.4
2022-08-02T21:30:36.536Z,35.47
2022-08-02T21:37:09.933Z,35.44
2022-08-02T21:43:39.143Z,35.43
2022-08-02T21:50:16.177Z,35.41
2022-08-02T21:56:56.373Z,35.48
2022-08-02T22:03:23.729Z,35.34
2022-08-02T22:09:56.223Z,35.56
2022-08-02T22:16:27.817Z,35.52
2022-08-02T22:22:53.551Z,35.5
2022-08-02T22:29:23.909Z,35.6
2022-08-02T22:36:04.383Z,35.54
2022-08-02T22:42:42.011Z,35.51
2022-08-02T22:49:17.462Z,35.55
2022-08-02T22:55:46.496Z,35.45
2022-08-02T23:02:15.021Z,35.44
2022-08-02T23:08:48.533Z,35.39
2022-08-02T23:15:19.380Z,35.28
2022-08-02T23:22:01.263Z,35.53
2022-08-02T23:28:49.473Z,35.4
2022-08-02T23:35:22.809Z,35.59
2022-08-02T23:41:55.524Z,35.64
2022-08-02T23:48:36.186Z,35.67
2022-08-02T23:55:03.402Z,35.53
